createdAt,value
2018-03-19T00:00:44.186Z,-3.10
2018-03-19T00:03:11.652Z,-3.10
2018-03-19T00:05:39.945Z,-3.10
2018-03-19T00:08:07.418Z,-3.10
2018-03-19T00:10:35.645Z,-3.10
2018-03-19T00:13:03.110Z,-3.10
2018-03-19T00:15:30.572Z,-3.10
2018-03-19T00:17:58.063Z,-3.10
2018-03-19T00:20:26.280Z,-3.10
2018-03-19T00:22:53.753Z,-3.20
2018-03-19T00:25:21.214Z,-3.10
2018-03-19T00:27:48.723Z,-3.20
2018-03-19T00:30:16.943Z,-3.10
2018-03-19T00:32:44.428Z,-3.10
2018-03-19T00:35:11.908Z,-3.10
2018-03-19T00:37:39.392Z,-3.10
2018-03-19T00:40:06.869Z,-3.20
2018-03-19T00:42:34.323Z,-3.20
2018-03-19T00:45:01.835Z,-3.20
2018-03-19T00:47:29.292Z,-3.20
2018-03-19T00:49:57.534Z,-3.20
2018-03-19T00:52:25.007Z,-3.30
2018-03-19T00:54:52.521Z,-3.20
2018-03-19T00:57:20.040Z,-3.20
2018-03-19T00:59:48.314Z,-3.20
2018-03-19T01:02:16.568Z,-3.20
2018-03-19T01:04:44.033Z,-3.20
2018-03-19T01:07:11.519Z,-3.20
2018-03-19T01:09:39.045Z,-3.20
2018-03-19T01:12:06.526Z,-3.20
2018-03-19T01:14:34.771Z,-3.20
2018-03-19T01:17:02.249Z,-3.30
2018-03-19T01:19:30.535Z,-3.20
2018-03-19T01:21:58.760Z,-3.30
2018-03-19T01:24:26.240Z,-3.30
2018-03-19T01:26:53.760Z,-3.30
2018-03-19T01:29:21.269Z,-3.30
2018-03-19T01:31:48.772Z,-3.30
2018-03-19T01:34:16.302Z,-3.20
2018-03-19T01:36:44.547Z,-3.30
2018-03-19T01:39:12.036Z,-3.30
2018-03-19T01:41:40.267Z,-3.30
2018-03-19T01:44:07.743Z,-3.30
2018-03-19T01:46:35.237Z,-3.30
2018-03-19T01:49:02.708Z,-3.30
2018-03-19T01:51:30.243Z,-3.30
2018-03-19T01:53:58.504Z,-3.40
2018-03-19T01:56:26.763Z,-3.40
2018-03-19T01:58:54.236Z,-3.40
2018-03-19T02:01:21.783Z,-3.40
2018-03-19T02:03:49.256Z,-3.40
2018-03-19T02:06:17.671Z,-3.40
2018-03-19T02:08:45.140Z,-3.50
2018-03-19T02:11:12.620Z,-3.40
2018-03-19T02:13:40.107Z,-3.40
2018-03-19T02:16:07.585Z,-3.50
2018-03-19T02:18:35.824Z,-3.40
2018-03-19T02:21:03.282Z,-3.40
2018-03-19T02:23:30.780Z,-3.50
2018-03-19T02:25:58.264Z,-3.50
2018-03-19T02:28:25.760Z,-3.50
2018-03-19T02:30:53.231Z,-3.40
2018-03-19T02:33:21.465Z,-3.50
2018-03-19T02:35:48.941Z,-3.50
2018-03-19T02:38:16.424Z,-3.50
2018-03-19T02:40:43.907Z,-3.50
2018-03-19T02:43:11.394Z,-3.40
2018-03-19T02:45:38.889Z,-3.50
2018-03-19T02:48:06.390Z,-3.50
2018-03-19T02:50:33.860Z,-3.40
2018-03-19T02:53:01.346Z,-3.50
2018-03-19T02:55:28.831Z,-3.50
2018-03-19T02:57:57.056Z,-3.50
2018-03-19T03:00:24.563Z,-3.50
2018-03-19T03:02:52.796Z,-3.50
2018-03-19T03:05:20.281Z,-3.50
2018-03-19T03:07:47.767Z,-3.60
2018-03-19T03:10:15.238Z,-3.50
2018-03-19T03:12:42.696Z,-3.50
2018-03-19T03:15:10.208Z,-3.40
2018-03-19T03:17:37.660Z,-3.50
2018-03-19T03:20:05.140Z,-3.50
2018-03-19T03:22:33.405Z,-3.50
2018-03-19T03:25:00.864Z,-3.50
2018-03-19T03:27:28.356Z,-3.50
2018-03-19T03:29:55.831Z,-3.50
2018-03-19T03:32:23.276Z,-3.50
2018-03-19T03:34:50.793Z,-3.50
2018-03-19T03:37:18.204Z,-3.50
2018-03-19T03:39:45.710Z,-3.50
2018-03-19T03:42:13.172Z,-3.50
2018-03-19T03:44:40.639Z,-3.50
2018-03-19T03:47:08.899Z,-3.50
2018-03-19T03:49:36.354Z,-3.60
2018-03-19T03:52:03.847Z,-3.50
2018-03-19T03:54:31.330Z,-3.50
2018-03-19T03:56:58.880Z,-3.50
2018-03-19T03:59:26.370Z,-3.50
2018-03-19T04:01:53.852Z,-3.50
2018-03-19T04:04:21.316Z,-3.50
2018-03-19T04:06:49.560Z,-3.50
2018-03-19T04:09:17.036Z,-3.50
2018-03-19T04:11:44.504Z,-3.50
2018-03-19T04:14:12.736Z,-3.60
2018-03-19T04:16:40.244Z,-3.60
2018-03-19T04:19:08.499Z,-3.60
2018-03-19T04:21:35.992Z,-3.60
2018-03-19T04:24:04.221Z,-3.60
2018-03-19T04:26:31.688Z,-3.60
2018-03-19T04:28:59.169Z,-3.60
2018-03-19T04:31:27.413Z,-3.60
2018-03-19T04:33:54.877Z,-3.70
2018-03-19T04:36:22.337Z,-3.70
2018-03-19T04:38:49.828Z,-3.60
2018-03-19T04:41:17.411Z,-3.60
2018-03-19T04:43:44.921Z,-3.60
2018-03-19T04:46:12.405Z,-3.60
2018-03-19T04:48:40.643Z,-3.60
2018-03-19T04:51:08.124Z,-3.60
2018-03-19T04:53:36.380Z,-3.60
2018-03-19T04:56:03.861Z,-3.60
2018-03-19T04:58:32.111Z,-3.70
2018-03-19T05:00:59.568Z,-3.70
2018-03-19T05:03:27.087Z,-3.70
2018-03-19T05:05:55.263Z,-3.70
2018-03-19T05:08:22.760Z,-3.70
2018-03-19T05:10:50.220Z,-3.60
2018-03-19T05:13:17.725Z,-3.70
2018-03-19T05:15:45.224Z,-3.70
2018-03-19T05:18:12.692Z,-3.60
2018-03-19T05:20:40.196Z,-3.70
2018-03-19T05:23:07.688Z,-3.60
2018-03-19T05:25:35.180Z,-3.70
2018-03-19T05:28:03.436Z,-3.60
2018-03-19T05:30:30.990Z,-3.70
2018-03-19T05:32:58.464Z,-3.70
2018-03-19T05:35:25.938Z,-3.70
2018-03-19T05:37:54.172Z,-3.70
2018-03-19T05:40:21.644Z,-3.60
2018-03-19T05:42:49.088Z,-3.60
2018-03-19T05:45:16.580Z,-3.60
2018-03-19T05:47:44.845Z,-3.60
2018-03-19T05:50:12.340Z,-3.60
2018-03-19T05:52:39.804Z,-3.60
2018-03-19T05:55:07.272Z,-3.60
2018-03-19T05:57:34.769Z,-3.60
2018-03-19T06:00:02.270Z,-3.50
2018-03-19T06:02:29.735Z,-3.50
2018-03-19T06:04:57.241Z,-3.60
2018-03-19T06:07:24.721Z,-3.50
2018-03-19T06:09:52.972Z,-3.50
2018-03-19T06:12:20.436Z,-3.60
2018-03-19T06:14:47.896Z,-3.60
2018-03-19T06:17:15.364Z,-3.60
2018-03-19T06:19:43.614Z,-3.60
2018-03-19T06:22:11.095Z,-3.60
2018-03-19T06:24:38.619Z,-3.60
2018-03-19T06:27:06.094Z,-3.50
2018-03-19T06:29:33.557Z,-3.40
2018-03-19T06:32:01.059Z,-3.40
2018-03-19T06:34:28.532Z,-3.50
2018-03-19T06:36:56.024Z,-3.50
2018-03-19T06:39:23.479Z,-3.40
2018-03-19T06:41:50.956Z,-3.50
2018-03-19T06:44:18.455Z,-3.50
2018-03-19T06:46:45.945Z,-3.50
2018-03-19T06:49:13.420Z,-3.40
2018-03-19T06:51:40.885Z,-3.40
2018-03-19T06:54:08.400Z,-3.40
2018-03-19T06:56:35.922Z,-3.40
2018-03-19T06:59:04.193Z,-3.30
2018-03-19T07:01:32.440Z,-3.20
2018-03-19T07:03:59.913Z,-3.20
2018-03-19T07:06:27.398Z,-3.10
2018-03-19T07:08:55.633Z,-3.10
2018-03-19T07:11:24.117Z,-3.10
2018-03-19T07:13:51.609Z,-3.10
2018-03-19T07:16:19.106Z,-3.10
2018-03-19T07:18:46.588Z,-3.10
2018-03-19T07:21:14.048Z,-3.00
2018-03-19T07:23:41.540Z,-3.00
2018-03-19T07:26:09.573Z,-2.90
2018-03-19T07:28:37.059Z,-3.00
2018-03-19T07:31:05.340Z,-2.90
2018-03-19T07:33:33.604Z,-2.90
2018-03-19T07:36:01.139Z,-2.90
2018-03-19T07:38:28.623Z,-2.90
2018-03-19T07:40:56.125Z,-2.80
2018-03-19T07:43:23.622Z,-2.70
2018-03-19T07:45:51.102Z,-2.60
2018-03-19T07:48:19.333Z,-2.80
2018-03-19T07:50:46.797Z,-2.80
2018-03-19T07:53:14.307Z,-2.60
2018-03-19T07:55:41.789Z,-2.60
2018-03-19T07:58:09.294Z,-2.70
2018-03-19T08:00:37.548Z,-2.60
2018-03-19T08:03:05.017Z,-2.60
2018-03-19T08:05:32.479Z,-2.70
2018-03-19T08:07:59.948Z,-2.60
2018-03-19T08:10:28.203Z,-2.60
2018-03-19T08:12:55.700Z,-2.60
2018-03-19T08:15:23.204Z,-2.50
2018-03-19T08:17:50.668Z,-2.60
2018-03-19T08:20:18.168Z,-2.50
2018-03-19T08:22:46.409Z,-2.50
2018-03-19T08:25:13.901Z,-2.60
2018-03-19T08:27:42.136Z,-2.40
2018-03-19T08:30:09.638Z,-2.50
2018-03-19T08:32:37.112Z,-2.40
2018-03-19T08:35:04.586Z,-2.20
2018-03-19T08:37:32.081Z,-2.20
2018-03-19T08:39:59.552Z,-2.30
2018-03-19T08:42:27.792Z,-2.00
2018-03-19T08:44:55.285Z,-2.00
2018-03-19T08:47:22.789Z,-2.00
2018-03-19T08:49:50.288Z,-1.90
2018-03-19T08:52:17.756Z,-1.70
2018-03-19T08:54:45.258Z,-1.70
2018-03-19T08:57:12.784Z,-1.70
2018-03-19T08:59:40.236Z,-1.70
2018-03-19T09:02:08.504Z,-1.60
2018-03-19T09:04:35.974Z,-1.60
2018-03-19T09:07:04.241Z,-1.60
2018-03-19T09:09:32.476Z,-1.60
2018-03-19T09:11:59.979Z,-1.70
2018-03-19T09:14:27.431Z,-1.50
2018-03-19T09:16:55.669Z,-1.10
2018-03-19T09:19:23.164Z,-1.20
2018-03-19T09:21:50.726Z,-0.70
2018-03-19T09:24:19.001Z,-1.20
2018-03-19T09:26:47.254Z,-1.00
2018-03-19T09:29:14.748Z,-1.00
2018-03-19T09:31:42.265Z,-0.80
2018-03-19T09:34:09.750Z,-0.80
2018-03-19T09:36:38.045Z,-1.10
2018-03-19T09:39:05.503Z,-1.10
2018-03-19T09:41:33.751Z,-0.90
2018-03-19T09:44:02.033Z,-1.10
2018-03-19T09:46:29.492Z,-1.10
2018-03-19T09:48:57.001Z,-0.80
2018-03-19T09:51:24.473Z,-0.60
2018-03-19T09:53:51.970Z,-0.40
2018-03-19T09:56:19.423Z,-0.30
2018-03-19T09:58:46.888Z,-0.40
2018-03-19T10:01:15.141Z,-0.30
2018-03-19T10:03:42.615Z,-0.30
2018-03-19T10:06:10.080Z,0.10
2018-03-19T10:08:37.540Z,-0.30
2018-03-19T10:11:05.812Z,-0.70
2018-03-19T10:13:34.085Z,-0.50
2018-03-19T10:16:02.840Z,-0.40
2018-03-19T10:18:30.396Z,-0.40
2018-03-19T10:20:57.888Z,-0.20
2018-03-19T10:23:26.120Z,0.50
2018-03-19T10:25:53.621Z,0.50
2018-03-19T10:28:21.887Z,0.30
2018-03-19T10:30:49.352Z,0.20
2018-03-19T10:33:16.816Z,-0.10
2018-03-19T10:35:45.065Z,-0.10
2018-03-19T10:38:12.549Z,-0.10
2018-03-19T10:40:40.809Z,-0.20
2018-03-19T10:43:08.283Z,-0.20
2018-03-19T10:45:36.544Z,-0.20
2018-03-19T10:48:04.011Z,-0.20
2018-03-19T10:50:32.273Z,-0.30
2018-03-19T10:52:59.818Z,-0.30
2018-03-19T10:55:28.241Z,-0.20
2018-03-19T10:57:56.488Z,-0.40
2018-03-19T11:00:24.777Z,-0.40
2018-03-19T11:02:54.226Z,-0.40
2018-03-19T11:05:27.272Z,-0.30
2018-03-19T11:08:01.149Z,-0.10
2018-03-19T11:10:28.620Z,-0.10
2018-03-19T11:12:56.152Z,-0.20
2018-03-19T11:15:23.649Z,-0.30
2018-03-19T11:17:51.896Z,-0.40
2018-03-19T11:20:19.396Z,-0.40
2018-03-19T11:22:47.649Z,-0.10
2018-03-19T11:25:15.147Z,-0.20
2018-03-19T11:27:42.624Z,-0.10
2018-03-19T11:30:10.113Z,0.00
2018-03-19T11:32:37.605Z,-0.20
2018-03-19T11:35:05.106Z,-0.10
2018-03-19T11:37:32.573Z,0.40
2018-03-19T11:40:00.045Z,0.60
2018-03-19T11:42:27.596Z,0.50
2018-03-19T11:44:55.069Z,0.20
2018-03-19T11:47:22.572Z,0.30
2018-03-19T11:49:50.081Z,0.90
2018-03-19T11:52:17.540Z,0.80
2018-03-19T11:54:45.005Z,1.10
2018-03-19T11:57:12.484Z,0.70
2018-03-19T11:59:39.981Z,0.60
2018-03-19T12:02:07.488Z,0.50
2018-03-19T12:04:34.962Z,0.40
2018-03-19T12:07:02.430Z,0.90
2018-03-19T12:09:29.926Z,0.60
2018-03-19T12:11:57.397Z,0.70
2018-03-19T12:14:24.899Z,0.80
2018-03-19T12:16:52.438Z,0.70
2018-03-19T12:19:19.942Z,1.00
2018-03-19T12:21:47.429Z,1.20
2018-03-19T12:24:14.920Z,1.50
2018-03-19T12:26:43.165Z,0.80
2018-03-19T12:29:10.672Z,0.80
2018-03-19T12:31:38.170Z,0.50
2018-03-19T12:34:05.648Z,0.80
2018-03-19T12:36:33.128Z,1.20
2018-03-19T12:39:01.399Z,0.60
2018-03-19T12:41:28.852Z,0.50
2018-03-19T12:43:56.333Z,0.50
2018-03-19T12:46:23.814Z,0.80
2018-03-19T12:48:51.307Z,0.90
2018-03-19T12:51:18.774Z,0.90
2018-03-19T12:53:46.317Z,0.60
2018-03-19T12:56:13.882Z,0.50
2018-03-19T12:58:41.368Z,0.10
2018-03-19T13:01:09.641Z,0.40
2018-03-19T13:03:37.893Z,0.10
2018-03-19T13:06:05.361Z,0.10
2018-03-19T13:08:32.836Z,0.20
2018-03-19T13:11:01.118Z,-0.10
2018-03-19T13:13:28.579Z,-0.10
2018-03-19T13:15:56.808Z,0.20
2018-03-19T13:18:24.272Z,0.10
2018-03-19T13:20:51.801Z,0.50
2018-03-19T13:23:19.259Z,0.30
2018-03-19T13:25:46.727Z,0.00
2018-03-19T13:28:14.180Z,0.00
2018-03-19T13:30:41.690Z,0.30
2018-03-19T13:33:09.965Z,0.70
2018-03-19T13:35:38.223Z,0.70
2018-03-19T13:38:05.713Z,0.70
2018-03-19T13:40:33.184Z,0.60
2018-03-19T13:43:00.669Z,0.60
2018-03-19T13:45:28.158Z,0.50
2018-03-19T13:47:55.600Z,0.70
2018-03-19T13:50:23.170Z,0.30
2018-03-19T13:52:50.528Z,0.60
2018-03-19T13:55:18.033Z,0.50
2018-03-19T13:57:45.508Z,0.60
2018-03-19T14:00:12.971Z,1.00
2018-03-19T14:02:40.448Z,1.00
2018-03-19T14:05:07.927Z,0.60
2018-03-19T14:07:36.182Z,0.90
2018-03-19T14:10:03.663Z,0.90
2018-03-19T14:12:31.905Z,0.80
2018-03-19T14:14:59.465Z,0.80
2018-03-19T14:17:26.976Z,1.10
2018-03-19T14:19:54.484Z,1.20
2018-03-19T14:22:21.956Z,0.80
2018-03-19T14:24:49.403Z,0.50
2018-03-19T14:27:16.864Z,0.80
2018-03-19T14:29:44.347Z,0.80
2018-03-19T14:32:12.576Z,0.30
2018-03-19T14:34:40.083Z,0.30
2018-03-19T14:37:08.308Z,0.80
2018-03-19T14:39:35.777Z,0.70
2018-03-19T14:42:03.236Z,1.00
2018-03-19T14:44:30.705Z,1.00
2018-03-19T14:46:58.241Z,0.60
2018-03-19T14:49:25.665Z,0.50
2018-03-19T14:51:53.190Z,0.70
2018-03-19T14:54:20.664Z,0.40
2018-03-19T14:56:48.896Z,0.50
2018-03-19T14:59:16.377Z,0.40
2018-03-19T15:01:43.904Z,1.00
2018-03-19T15:04:11.397Z,0.90
2018-03-19T15:06:38.889Z,1.10
2018-03-19T15:09:06.352Z,0.70
2018-03-19T15:11:33.817Z,0.70
2018-03-19T15:14:01.281Z,0.40
2018-03-19T15:16:29.526Z,0.70
2018-03-19T15:18:56.981Z,0.70
2018-03-19T15:21:25.245Z,0.90
2018-03-19T15:23:53.479Z,0.90
2018-03-19T15:26:20.974Z,0.90
2018-03-19T15:28:48.444Z,0.70
2018-03-19T15:31:16.720Z,0.80
2018-03-19T15:33:44.176Z,0.80
2018-03-19T15:36:12.424Z,0.90
2018-03-19T15:38:39.885Z,0.90
2018-03-19T15:41:07.369Z,0.90
2018-03-19T15:43:34.848Z,0.50
2018-03-19T15:46:02.375Z,0.50
2018-03-19T15:48:29.861Z,0.50
2018-03-19T15:50:57.425Z,0.50
2018-03-19T15:53:24.884Z,0.70
2018-03-19T15:55:52.368Z,0.80
2018-03-19T15:58:19.836Z,0.70
2018-03-19T16:00:47.336Z,0.60
2018-03-19T16:03:14.813Z,0.50
2018-03-19T16:05:43.088Z,0.40
2018-03-19T16:08:11.326Z,0.60
2018-03-19T16:10:38.792Z,0.60
2018-03-19T16:13:07.028Z,0.50
2018-03-19T16:15:34.519Z,0.50
2018-03-19T16:18:02.000Z,0.50
2018-03-19T16:20:30.234Z,0.30
2018-03-19T16:22:57.697Z,0.30
2018-03-19T16:25:25.184Z,0.10
2018-03-19T16:27:53.493Z,0.00
2018-03-19T16:30:20.950Z,0.00
2018-03-19T16:32:48.428Z,0.00
2018-03-19T16:35:15.900Z,0.00
2018-03-19T16:37:43.390Z,-0.10
2018-03-19T16:40:11.621Z,-0.10
2018-03-19T16:42:39.088Z,0.00
2018-03-19T16:45:06.540Z,0.00
2018-03-19T16:47:34.025Z,0.20
2018-03-19T16:50:02.268Z,0.30
2018-03-19T16:52:29.808Z,0.30
2018-03-19T16:54:57.285Z,0.30
2018-03-19T16:57:24.748Z,0.10
2018-03-19T16:59:52.244Z,-0.10
2018-03-19T17:02:20.493Z,-0.30
2018-03-19T17:04:47.980Z,-0.30
2018-03-19T17:07:16.276Z,-0.30
2018-03-19T17:09:43.680Z,-0.30
2018-03-19T17:12:11.144Z,-0.30
2018-03-19T17:14:38.620Z,-0.30
2018-03-19T17:17:06.079Z,-0.30
2018-03-19T17:19:33.584Z,-0.20
2018-03-19T17:22:01.055Z,-0.10
2018-03-19T17:24:28.540Z,-0.20
2018-03-19T17:26:56.006Z,-0.20
2018-03-19T17:29:23.488Z,-0.10
2018-03-19T17:31:50.959Z,-0.10
2018-03-19T17:34:18.428Z,-0.20
2018-03-19T17:36:45.894Z,-0.20
2018-03-19T17:39:13.372Z,-0.30
2018-03-19T17:41:40.882Z,-0.30
2018-03-19T17:44:08.307Z,-0.30
2018-03-19T17:46:35.772Z,-0.30
2018-03-19T17:49:03.985Z,-0.20
2018-03-19T17:51:31.473Z,-0.20
2018-03-19T17:53:58.929Z,-0.30
2018-03-19T17:56:26.421Z,-0.20
2018-03-19T17:58:53.889Z,-0.10
2018-03-19T18:01:21.347Z,0.10
2018-03-19T18:03:48.813Z,-0.20
2018-03-19T18:06:16.289Z,-0.10
2018-03-19T18:08:43.772Z,0.00
2018-03-19T18:11:11.236Z,-0.20
2018-03-19T18:13:38.702Z,-0.10
2018-03-19T18:16:06.172Z,-0.30
2018-03-19T18:18:34.412Z,-0.20
2018-03-19T18:21:01.873Z,-0.20
2018-03-19T18:23:29.333Z,-0.20
2018-03-19T18:25:56.835Z,-0.40
2018-03-19T18:28:25.068Z,-0.40
2018-03-19T18:30:52.535Z,-0.40
2018-03-19T18:33:20.004Z,-0.40
2018-03-19T18:35:47.481Z,-0.30
2018-03-19T18:38:15.730Z,-0.20
2018-03-19T18:40:43.219Z,-0.20
2018-03-19T18:43:11.496Z,-0.10
2018-03-19T18:45:39.008Z,-0.10
2018-03-19T18:48:06.489Z,-0.30
2018-03-19T18:50:33.949Z,-0.30
2018-03-19T18:53:02.189Z,-0.30
2018-03-19T18:55:29.687Z,-0.30
2018-03-19T18:57:57.144Z,-0.40
2018-03-19T19:00:25.368Z,-0.30
2018-03-19T19:02:52.845Z,-0.40
2018-03-19T19:05:20.319Z,-0.40
2018-03-19T19:07:47.796Z,-0.50
2018-03-19T19:10:16.028Z,-0.60
2018-03-19T19:12:43.524Z,-0.60
2018-03-19T19:15:10.971Z,-0.60
2018-03-19T19:17:38.452Z,-0.60
2018-03-19T19:20:06.769Z,-0.70
2018-03-19T19:22:34.190Z,-0.70
2018-03-19T19:25:01.664Z,-0.70
2018-03-19T19:27:29.152Z,-0.80
2018-03-19T19:29:56.712Z,-0.80
2018-03-19T19:32:24.209Z,-0.80
2018-03-19T19:34:52.439Z,-0.80
2018-03-19T19:37:19.893Z,-0.80
2018-03-19T19:39:47.370Z,-0.80
2018-03-19T19:42:14.849Z,-0.80
2018-03-19T19:44:42.312Z,-0.80
2018-03-19T19:47:10.528Z,-0.80
2018-03-19T19:49:38.005Z,-0.80
2018-03-19T19:52:05.478Z,-0.70
2018-03-19T19:54:32.948Z,-0.80
2018-03-19T19:57:00.412Z,-0.80
2018-03-19T19:59:28.636Z,-1.00
2018-03-19T20:01:56.109Z,-1.10
2018-03-19T20:04:23.622Z,-1.10
2018-03-19T20:06:51.058Z,-1.10
2018-03-19T20:09:18.523Z,-1.10
2018-03-19T20:11:46.772Z,-1.10
2018-03-19T20:14:14.268Z,-1.10
2018-03-19T20:16:42.515Z,-1.20
2018-03-19T20:19:09.976Z,-1.20
2018-03-19T20:21:37.440Z,-1.10
2018-03-19T20:24:04.896Z,-1.20
2018-03-19T20:26:32.372Z,-1.20
2018-03-19T20:29:00.612Z,-1.10
2018-03-19T20:31:28.075Z,-1.10
2018-03-19T20:33:55.545Z,-1.10
2018-03-19T20:36:23.030Z,-1.30
2018-03-19T20:38:50.492Z,-1.40
2018-03-19T20:41:17.967Z,-1.40
2018-03-19T20:43:45.411Z,-1.50
2018-03-19T20:46:12.886Z,-1.50
2018-03-19T20:48:40.339Z,-1.50
2018-03-19T20:51:07.807Z,-1.50
2018-03-19T20:53:35.265Z,-1.50
2018-03-19T20:56:02.725Z,-1.50
2018-03-19T20:58:30.192Z,-1.50
2018-03-19T21:00:57.664Z,-1.50
2018-03-19T21:03:25.140Z,-1.50
2018-03-19T21:05:53.376Z,-1.50
2018-03-19T21:08:20.856Z,-1.50
2018-03-19T21:10:48.317Z,-1.40
2018-03-19T21:13:15.796Z,-1.30
2018-03-19T21:15:44.016Z,-1.40
2018-03-19T21:18:11.489Z,-1.40
2018-03-19T21:20:38.952Z,-1.40
2018-03-19T21:23:06.435Z,-1.40
2018-03-19T21:25:34.665Z,-1.60
2018-03-19T21:28:02.145Z,-1.70
2018-03-19T21:30:29.613Z,-1.70
2018-03-19T21:32:57.111Z,-1.80
2018-03-19T21:35:24.572Z,-1.70
2018-03-19T21:37:52.057Z,-1.70
2018-03-19T21:40:19.515Z,-1.80
2018-03-19T21:42:47.000Z,-1.90
2018-03-19T21:45:14.490Z,-1.80
2018-03-19T21:47:41.964Z,-1.80
2018-03-19T21:50:09.441Z,-1.80
2018-03-19T21:52:36.892Z,-1.80
2018-03-19T21:55:04.370Z,-1.90
2018-03-19T21:57:31.836Z,-1.70
2018-03-19T21:59:59.307Z,-1.70
2018-03-19T22:02:26.778Z,-1.70
2018-03-19T22:04:55.014Z,-1.90
2018-03-19T22:07:22.492Z,-2.00
2018-03-19T22:09:49.969Z,-1.90
2018-03-19T22:12:18.196Z,-2.10
2018-03-19T22:14:45.679Z,-2.10
2018-03-19T22:17:13.128Z,-2.20
2018-03-19T22:19:40.596Z,-2.20
2018-03-19T22:22:08.044Z,-2.10
2018-03-19T22:24:35.532Z,-2.10
2018-03-19T22:27:03.768Z,-1.90
2018-03-19T22:29:31.244Z,-1.90
2018-03-19T22:31:58.732Z,-2.20
2018-03-19T22:34:26.164Z,-2.30
2018-03-19T22:36:53.648Z,-2.30
2018-03-19T22:39:21.118Z,-2.40
2018-03-19T22:41:48.573Z,-2.30
2018-03-19T22:44:16.036Z,-2.40
2018-03-19T22:46:43.532Z,-2.50
2018-03-19T22:49:11.005Z,-2.50
2018-03-19T22:51:38.480Z,-2.50
2018-03-19T22:54:06.738Z,-2.50
2018-03-19T22:56:34.379Z,-2.50
2018-03-19T22:59:01.901Z,-2.50
2018-03-19T23:01:29.388Z,-2.70
2018-03-19T23:03:56.893Z,-2.80
2018-03-19T23:06:25.153Z,-2.90
2018-03-19T23:08:52.642Z,-2.90
2018-03-19T23:11:20.892Z,-3.00
2018-03-19T23:13:49.134Z,-2.90
2018-03-19T23:16:16.607Z,-2.90
2018-03-19T23:18:44.095Z,-3.00
2018-03-19T23:21:12.332Z,-3.10
2018-03-19T23:23:39.803Z,-3.10
2018-03-19T23:26:07.294Z,-3.10
2018-03-19T23:28:34.763Z,-3.00
2018-03-19T23:31:02.248Z,-3.10
2018-03-19T23:33:29.729Z,-3.10
2018-03-19T23:35:57.204Z,-3.10
2018-03-19T23:38:24.676Z,-3.20
2018-03-19T23:40:52.911Z,-3.30
2018-03-19T23:43:20.388Z,-3.30
2018-03-19T23:45:47.861Z,-3.20
2018-03-19T23:48:16.107Z,-3.30
2018-03-19T23:50:43.564Z,-3.30
2018-03-19T23:53:11.058Z,-3.20
2018-03-19T23:55:39.299Z,-3.20
2018-03-19T23:58:06.806Z,-3.20
